createdAt,value
2023-04-19T00:00:14.718Z,70.21
2023-04-19T00:02:44.374Z,70.09
2023-04-19T00:08:15.216Z,70.39
2023-04-19T00:10:43.704Z,70.54
2023-04-19T00:13:12.759Z,70.60
2023-04-19T00:15:41.175Z,70.78
2023-04-19T00:18:09.496Z,71.20
2023-04-19T00:20:39.080Z,71.18
2023-04-19T00:23:07.350Z,71.43
2023-04-19T00:25:35.649Z,71.38
2023-04-19T00:28:04.226Z,71.51
2023-04-19T00:30:32.524Z,71.81
2023-04-19T00:33:00.790Z,71.91
2023-04-19T00:35:29.084Z,71.98
2023-04-19T00:37:57.382Z,72.10
2023-04-19T00:40:25.658Z,72.06
2023-04-19T00:42:53.776Z,72.27
2023-04-19T00:45:21.935Z,72.26
2023-04-19T00:47:50.211Z,72.47
2023-04-19T00:50:20.572Z,72.34
2023-04-19T00:52:48.702Z,72.38
2023-04-19T00:55:16.860Z,72.51
2023-04-19T00:57:45.054Z,72.77
2023-04-19T01:00:13.724Z,72.77
2023-04-19T01:02:42.279Z,72.90
2023-04-19T01:05:10.965Z,72.89
2023-04-19T01:07:42.857Z,73.02
2023-04-19T01:10:11.025Z,73.14
2023-04-19T01:12:39.354Z,73.07
2023-04-19T01:15:08.294Z,73.01
2023-04-19T01:17:37.198Z,73.14
2023-04-19T01:20:08.195Z,73.18
2023-04-19T01:22:37.821Z,73.15
2023-04-19T01:25:07.476Z,73.37
2023-04-19T01:27:36.177Z,73.55
2023-04-19T01:30:04.772Z,73.82
2023-04-19T01:32:33.788Z,73.96
2023-04-19T01:35:01.932Z,74.13
2023-04-19T01:37:31.860Z,74.47
2023-04-19T01:40:00.002Z,74.73
2023-04-19T01:42:29.766Z,74.79
2023-04-19T01:44:57.928Z,74.87
2023-04-19T01:47:27.523Z,75.08
2023-04-19T01:49:55.688Z,75.36
2023-04-19T01:52:23.912Z,75.56
2023-04-19T01:54:52.037Z,75.68
2023-04-19T01:57:20.440Z,76.00
2023-04-19T01:59:48.992Z,76.16
2023-04-19T02:02:17.247Z,76.31
2023-04-19T02:04:45.542Z,76.46
2023-04-19T02:07:13.649Z,76.76
2023-04-19T02:09:42.600Z,76.92
2023-04-19T02:12:10.793Z,77.11
2023-04-19T02:14:38.971Z,77.42
2023-04-19T02:17:07.190Z,77.71
2023-04-19T02:19:35.375Z,77.85
2023-04-19T02:22:03.760Z,78.04
2023-04-19T02:24:32.344Z,78.34
2023-04-19T02:27:01.001Z,78.64
2023-04-19T02:29:29.475Z,78.84
2023-04-19T02:31:59.100Z,78.88
2023-04-19T02:34:27.986Z,78.84
2023-04-19T02:36:56.029Z,79.03
2023-04-19T02:39:24.227Z,79.17
2023-04-19T02:41:52.339Z,79.18
2023-04-19T02:44:20.568Z,79.23
2023-04-19T02:46:52.240Z,79.24
2023-04-19T02:49:21.197Z,79.10
2023-04-19T02:51:51.125Z,79.32
2023-04-19T02:54:19.285Z,79.67
2023-04-19T02:56:47.802Z,79.77
2023-04-19T02:59:16.609Z,79.85
2023-04-19T03:01:45.360Z,79.95
2023-04-19T03:04:13.825Z,80.07
2023-04-19T03:06:42.326Z,80.27
2023-04-19T03:09:10.804Z,80.57
2023-04-19T03:11:39.105Z,80.70
2023-04-19T03:14:07.691Z,80.86
2023-04-19T03:16:37.999Z,80.97
2023-04-19T03:19:06.373Z,81.16
2023-04-19T03:21:39.073Z,81.17
2023-04-19T03:24:07.533Z,81.07
2023-04-19T03:26:36.847Z,81.06
2023-04-19T03:29:05.645Z,81.10
2023-04-19T03:31:56.649Z,81.10
2023-04-19T03:34:24.800Z,81.32
2023-04-19T03:36:52.969Z,81.42
2023-04-19T03:39:21.087Z,81.57
2023-04-19T03:41:51.748Z,81.51
2023-04-19T03:44:38.641Z,81.31
2023-04-19T03:47:07.155Z,81.24
2023-04-19T03:49:40.578Z,80.93
2023-04-19T03:52:08.753Z,80.80
2023-04-19T03:54:36.944Z,80.65
2023-04-19T03:57:06.636Z,80.13
2023-04-19T03:59:36.044Z,79.82
2023-04-19T04:02:04.713Z,79.46
2023-04-19T04:04:34.355Z,79.24
2023-04-19T04:07:02.890Z,79.10
2023-04-19T04:09:31.903Z,78.74
2023-04-19T04:12:00.481Z,78.37
2023-04-19T04:14:28.898Z,78.20
2023-04-19T04:16:57.196Z,78.04
2023-04-19T04:19:25.783Z,77.55
2023-04-19T04:21:54.275Z,77.55
2023-04-19T04:24:22.942Z,77.14
2023-04-19T04:27:14.083Z,76.97
2023-04-19T04:29:44.119Z,77.00
2023-04-19T04:32:14.416Z,76.85
2023-04-19T04:34:43.184Z,76.91
2023-04-19T04:37:14.650Z,76.79
2023-04-19T04:39:43.094Z,76.40
2023-04-19T04:42:12.472Z,76.36
2023-04-19T04:44:41.753Z,76.67
2023-04-19T04:47:15.641Z,76.44
2023-04-19T04:49:48.669Z,75.95
2023-04-19T04:52:17.589Z,75.52
2023-04-19T04:55:01.012Z,75.28
2023-04-19T04:57:33.035Z,74.85
2023-04-19T05:00:01.661Z,74.55
2023-04-19T05:02:34.886Z,74.45
2023-04-19T05:05:03.700Z,74.34
2023-04-19T05:07:32.134Z,74.04
2023-04-19T05:10:00.610Z,73.98
2023-04-19T05:12:32.954Z,74.09
2023-04-19T05:15:01.712Z,73.99
2023-04-19T05:17:30.966Z,73.86
2023-04-19T05:19:59.209Z,73.66
2023-04-19T05:22:27.556Z,73.66
2023-04-19T05:24:55.764Z,73.50
2023-04-19T05:27:23.956Z,73.62
2023-04-19T05:29:52.208Z,73.68
2023-04-19T05:32:20.986Z,73.66
2023-04-19T05:34:55.903Z,73.60
2023-04-19T05:37:27.291Z,73.67
2023-04-19T05:39:55.876Z,73.84
2023-04-19T05:42:24.034Z,74.15
2023-04-19T05:44:52.146Z,74.32
2023-04-19T05:47:21.534Z,74.44
2023-04-19T05:50:10.221Z,74.81
2023-04-19T05:52:42.990Z,74.87
2023-04-19T05:55:11.233Z,74.88
2023-04-19T05:57:43.335Z,74.61
2023-04-19T06:00:11.932Z,74.59
2023-04-19T06:02:47.257Z,74.35
2023-04-19T06:05:15.837Z,73.98
2023-04-19T06:07:54.587Z,73.68
2023-04-19T06:10:23.855Z,73.29
2023-04-19T06:12:52.013Z,72.61
2023-04-19T06:15:20.113Z,71.96
2023-04-19T06:17:48.537Z,71.94
2023-04-19T06:20:17.587Z,71.71
2023-04-19T06:22:45.858Z,71.53
2023-04-19T06:25:14.169Z,71.03
2023-04-19T06:27:42.339Z,70.74
2023-04-19T06:30:10.737Z,70.12
2023-04-19T06:32:39.052Z,69.65
2023-04-19T06:35:08.003Z,69.82
2023-04-19T06:37:36.717Z,70.01
2023-04-19T06:40:07.153Z,70.16
2023-04-19T06:42:36.089Z,70.40
2023-04-19T06:45:04.944Z,70.65
2023-04-19T06:47:35.584Z,71.03
2023-04-19T06:50:04.307Z,71.16
2023-04-19T06:52:32.662Z,71.41
2023-04-19T06:55:01.019Z,71.37
2023-04-19T06:57:29.406Z,71.43
2023-04-19T06:59:58.446Z,71.23
2023-04-19T07:02:26.755Z,70.45
2023-04-19T07:04:55.795Z,69.85
2023-04-19T07:07:24.127Z,68.94
2023-04-19T07:09:52.571Z,67.95
2023-04-19T07:12:20.883Z,67.78
2023-04-19T07:14:49.053Z,67.80
2023-04-19T07:17:18.610Z,67.36
2023-04-19T07:19:48.777Z,67.62
2023-04-19T07:22:17.165Z,67.77
2023-04-19T07:24:45.583Z,67.52
2023-04-19T07:27:14.911Z,67.20
2023-04-19T07:29:43.196Z,66.96
2023-04-19T07:32:13.804Z,67.08
2023-04-19T07:34:42.777Z,67.15
2023-04-19T07:37:11.186Z,66.98
2023-04-19T07:39:40.002Z,66.90
2023-04-19T07:42:08.181Z,67.16
2023-04-19T07:44:36.745Z,66.86
2023-04-19T07:47:06.293Z,66.75
2023-04-19T07:49:34.869Z,66.67
2023-04-19T07:52:03.390Z,66.32
2023-04-19T07:54:32.494Z,66.24
2023-04-19T07:57:00.768Z,65.98
2023-04-19T07:59:29.031Z,65.86
2023-04-19T08:01:57.247Z,65.69
2023-04-19T08:04:25.989Z,65.24
2023-04-19T08:06:55.263Z,65.14
2023-04-19T08:09:23.395Z,64.77
2023-04-19T08:11:51.733Z,64.94
2023-04-19T08:14:32.245Z,65.11
2023-04-19T08:19:35.911Z,64.13
2023-04-19T08:22:04.948Z,63.74
2023-04-19T08:24:33.184Z,63.37
2023-04-19T08:27:01.654Z,63.50
2023-04-19T08:29:30.001Z,63.57
2023-04-19T08:31:58.195Z,63.84
2023-04-19T08:34:26.318Z,63.35
2023-04-19T08:37:03.205Z,62.78
2023-04-19T08:39:34.272Z,62.31
2023-04-19T08:42:13.179Z,62.26
2023-04-19T08:47:29.622Z,61.60
2023-04-19T08:50:14.089Z,61.63
2023-04-19T08:52:56.183Z,61.48
2023-04-19T08:55:29.911Z,61.51
2023-04-19T08:57:58.818Z,60.79
2023-04-19T09:00:26.931Z,60.50
2023-04-19T09:02:56.092Z,60.69
2023-04-19T09:05:24.577Z,60.31
2023-04-19T09:07:53.272Z,59.70
2023-04-19T09:10:21.637Z,59.32
2023-04-19T09:13:05.708Z,59.19
2023-04-19T09:15:41.781Z,58.10
2023-04-19T09:18:10.512Z,56.94
2023-04-19T09:20:40.152Z,57.21
2023-04-19T09:23:09.879Z,57.50
2023-04-19T09:25:59.319Z,57.55
2023-04-19T09:28:28.117Z,57.03
2023-04-19T09:31:05.698Z,56.87
2023-04-19T09:33:45.500Z,56.73
2023-04-19T09:36:29.038Z,55.66
2023-04-19T09:38:57.557Z,55.85
2023-04-19T09:41:28.774Z,56.25
2023-04-19T09:44:52.514Z,55.84
2023-04-19T09:46:57.811Z,56.22
2023-04-19T09:49:37.642Z,55.64
2023-04-19T09:52:09.658Z,55.27
2023-04-19T09:54:37.813Z,55.33
2023-04-19T09:57:05.996Z,55.12
2023-04-19T09:59:35.898Z,55.54
2023-04-19T10:02:04.384Z,55.75
2023-04-19T10:04:57.023Z,55.94
2023-04-19T10:09:55.080Z,56.44
2023-04-19T10:14:58.144Z,55.07
2023-04-19T10:17:26.322Z,55.48
2023-04-19T10:20:07.008Z,55.46
2023-04-19T10:22:35.454Z,55.61
2023-04-19T10:25:14.463Z,55.95
2023-04-19T10:27:47.022Z,55.89
2023-04-19T10:30:27.269Z,55.41
2023-04-19T10:32:57.037Z,55.88
2023-04-19T10:35:35.872Z,55.78
2023-04-19T10:38:04.119Z,55.63
2023-04-19T10:40:58.302Z,55.60
2023-04-19T10:43:35.640Z,55.75
2023-04-19T10:46:13.655Z,56.17
2023-04-19T10:48:59.878Z,56.21
2023-04-19T10:51:29.518Z,56.52
2023-04-19T10:54:03.868Z,56.34
2023-04-19T10:56:34.831Z,56.52
2023-04-19T10:59:02.980Z,56.33
2023-04-19T11:01:40.381Z,56.08
2023-04-19T11:04:16.065Z,55.24
2023-04-19T11:06:50.730Z,55.04
2023-04-19T11:09:25.804Z,54.79
2023-04-19T11:11:54.555Z,54.66
2023-04-19T11:14:22.717Z,53.97
2023-04-19T11:16:51.036Z,53.74
2023-04-19T11:19:19.824Z,54.72
2023-04-19T11:21:48.621Z,55.54
2023-04-19T11:24:18.991Z,55.72
2023-04-19T11:26:47.826Z,55.59
2023-04-19T11:29:16.150Z,56.10
2023-04-19T11:31:46.449Z,56.72
2023-04-19T11:34:15.290Z,57.16
2023-04-19T11:36:51.409Z,57.67
2023-04-19T11:39:19.751Z,58.24
2023-04-19T11:41:47.901Z,58.65
2023-04-19T11:44:17.413Z,58.94
2023-04-19T11:47:06.079Z,59.04
2023-04-19T11:49:34.617Z,59.30
2023-04-19T11:52:05.858Z,59.23
2023-04-19T11:54:35.160Z,59.53
2023-04-19T11:57:07.546Z,59.88
2023-04-19T11:59:36.607Z,60.34
2023-04-19T12:02:12.074Z,60.66
2023-04-19T12:04:41.264Z,60.77
2023-04-19T12:07:10.517Z,60.99
2023-04-19T12:09:39.442Z,61.20
2023-04-19T12:12:07.676Z,61.43
2023-04-19T12:14:35.996Z,61.73
2023-04-19T12:17:05.353Z,62.31
2023-04-19T12:19:38.227Z,62.89
2023-04-19T12:22:17.196Z,63.53
2023-04-19T12:24:45.873Z,64.39
2023-04-19T12:27:14.112Z,65.48
2023-04-19T12:29:42.232Z,66.00
2023-04-19T12:32:11.089Z,66.63
2023-04-19T12:34:39.425Z,67.31
2023-04-19T12:37:07.494Z,68.13
2023-04-19T12:39:36.292Z,68.96
2023-04-19T12:42:06.124Z,70.01
2023-04-19T12:44:34.389Z,70.33
2023-04-19T12:47:02.644Z,71.08
2023-04-19T12:49:30.927Z,71.61
2023-04-19T12:51:59.112Z,72.24
2023-04-19T12:54:27.459Z,72.95
2023-04-19T12:56:56.233Z,73.31
2023-04-19T12:59:24.518Z,73.47
2023-04-19T13:01:52.728Z,73.63
2023-04-19T13:04:21.108Z,73.93
2023-04-19T13:06:49.625Z,74.53
2023-04-19T13:09:17.799Z,74.73
2023-04-19T13:11:45.956Z,75.45
2023-04-19T13:14:14.348Z,75.61
2023-04-19T13:16:42.742Z,75.76
2023-04-19T13:19:11.212Z,75.81
2023-04-19T13:21:39.490Z,76.23
2023-04-19T13:24:08.088Z,76.81
2023-04-19T13:26:36.582Z,76.51
2023-04-19T13:29:05.005Z,76.15
2023-04-19T13:31:33.729Z,76.48
2023-04-19T13:34:02.077Z,76.25
2023-04-19T13:36:31.211Z,76.34
2023-04-19T13:38:59.927Z,76.05
2023-04-19T13:41:28.133Z,75.84
2023-04-19T13:43:56.356Z,75.87
2023-04-19T13:46:24.638Z,76.23
2023-04-19T13:48:52.777Z,76.63
2023-04-19T13:51:20.901Z,76.71
2023-04-19T13:53:49.024Z,76.55
2023-04-19T13:56:17.454Z,76.69
2023-04-19T13:58:45.544Z,76.30
2023-04-19T14:01:13.835Z,75.82
2023-04-19T14:03:42.421Z,76.00
2023-04-19T14:06:11.331Z,76.10
2023-04-19T14:08:39.752Z,76.07
2023-04-19T14:11:07.927Z,75.67
2023-04-19T14:13:36.152Z,75.68
2023-04-19T14:16:04.648Z,75.28
2023-04-19T14:18:33.090Z,75.38
2023-04-19T14:21:01.276Z,75.68
2023-04-19T14:23:29.653Z,75.45
2023-04-19T14:25:57.847Z,74.89
2023-04-19T14:28:26.220Z,74.50
2023-04-19T14:30:54.385Z,74.45
2023-04-19T14:33:22.516Z,73.94
2023-04-19T14:35:50.788Z,73.17
2023-04-19T14:38:19.709Z,71.92
2023-04-19T14:40:48.370Z,71.88
2023-04-19T14:43:16.644Z,71.99
2023-04-19T14:45:45.044Z,71.77
2023-04-19T14:48:13.448Z,71.73
2023-04-19T14:50:41.706Z,71.36
2023-04-19T14:53:09.918Z,70.17
2023-04-19T14:55:38.617Z,69.58
2023-04-19T14:58:07.248Z,69.33
2023-04-19T15:00:36.177Z,69.09
2023-04-19T15:03:04.780Z,68.11
2023-04-19T15:05:34.859Z,67.78
2023-04-19T15:08:03.162Z,67.46
2023-04-19T15:10:32.222Z,67.57
2023-04-19T15:13:03.086Z,67.64
2023-04-19T15:15:31.293Z,67.76
2023-04-19T15:17:59.433Z,67.78
2023-04-19T15:20:27.818Z,67.68
2023-04-19T15:22:56.143Z,67.78
2023-04-19T15:25:26.142Z,67.93
2023-04-19T15:27:54.424Z,67.64
2023-04-19T15:30:22.571Z,67.37
2023-04-19T15:32:50.927Z,67.45
2023-04-19T15:35:19.135Z,67.33
2023-04-19T15:37:47.597Z,67.40
2023-04-19T15:40:17.210Z,67.71
2023-04-19T15:42:45.885Z,67.91
2023-04-19T15:45:15.773Z,67.98
2023-04-19T15:47:44.082Z,67.96
2023-04-19T15:50:12.404Z,68.25
2023-04-19T15:52:41.370Z,68.26
2023-04-19T15:55:09.943Z,68.37
2023-04-19T15:57:38.307Z,68.71
2023-04-19T16:00:09.568Z,68.79
2023-04-19T16:02:41.052Z,68.90
2023-04-19T16:05:09.748Z,69.15
2023-04-19T16:07:38.293Z,69.15
2023-04-19T16:10:07.605Z,69.42
2023-04-19T16:12:36.418Z,69.34
2023-04-19T16:15:05.390Z,69.62
2023-04-19T16:17:33.682Z,69.76
2023-04-19T16:20:01.840Z,69.92
2023-04-19T16:22:30.323Z,70.07
2023-04-19T16:24:58.503Z,70.13
2023-04-19T16:27:27.337Z,70.10
2023-04-19T16:29:55.453Z,70.17
2023-04-19T16:32:23.752Z,70.14
2023-04-19T16:34:52.065Z,70.36
2023-04-19T16:37:20.748Z,70.41
2023-04-19T16:39:48.865Z,70.37
2023-04-19T16:42:16.972Z,70.23
2023-04-19T16:44:45.111Z,70.17
2023-04-19T16:47:13.360Z,70.16
2023-04-19T16:49:41.568Z,70.37
2023-04-19T16:52:09.832Z,70.46
2023-04-19T16:54:38.111Z,70.65
2023-04-19T16:57:06.894Z,70.83
2023-04-19T16:59:35.362Z,71.02
2023-04-19T17:02:04.780Z,70.88
2023-04-19T17:04:33.635Z,70.96
2023-04-19T17:07:02.162Z,70.99
2023-04-19T17:09:30.766Z,71.37
2023-04-19T17:11:58.965Z,71.83
2023-04-19T17:14:27.070Z,72.25
2023-04-19T17:16:55.809Z,72.61
2023-04-19T17:19:24.098Z,72.83
2023-04-19T17:21:52.255Z,73.55
2023-04-19T17:24:20.472Z,73.65
2023-04-19T17:26:49.963Z,73.84
2023-04-19T17:29:18.394Z,73.44
2023-04-19T17:31:46.892Z,73.12
2023-04-19T17:34:15.068Z,72.96
2023-04-19T17:36:43.419Z,72.60
2023-04-19T17:39:11.550Z,71.54
2023-04-19T17:41:40.082Z,70.87
2023-04-19T17:44:08.164Z,70.00
2023-04-19T17:46:37.193Z,69.21
2023-04-19T17:49:05.357Z,68.12
2023-04-19T17:51:33.602Z,67.80
2023-04-19T17:54:01.828Z,67.86
2023-04-19T17:56:31.601Z,67.31
2023-04-19T17:59:03.376Z,67.02
2023-04-19T18:01:33.590Z,66.71
2023-04-19T18:04:02.264Z,66.52
2023-04-19T18:06:31.896Z,66.45
2023-04-19T18:09:00.577Z,66.56
2023-04-19T18:11:29.085Z,66.67
2023-04-19T18:13:57.351Z,66.82
2023-04-19T18:16:25.558Z,67.53
2023-04-19T18:18:53.940Z,67.90
2023-04-19T18:21:22.141Z,68.36
2023-04-19T18:23:52.199Z,68.82
2023-04-19T18:26:21.887Z,69.39
2023-04-19T18:28:50.390Z,70.09
2023-04-19T18:31:18.508Z,70.70
2023-04-19T18:33:47.029Z,71.20
2023-04-19T18:36:15.267Z,71.82
2023-04-19T18:38:43.555Z,72.47
2023-04-19T18:41:12.270Z,72.90
2023-04-19T18:43:40.524Z,73.11
2023-04-19T18:46:08.780Z,73.35
2023-04-19T18:48:36.992Z,73.27
2023-04-19T18:51:08.481Z,73.67
2023-04-19T18:53:36.796Z,73.77
2023-04-19T18:56:05.106Z,73.94
2023-04-19T18:58:34.323Z,74.19
2023-04-19T19:01:02.778Z,74.38
2023-04-19T19:03:53.928Z,74.57
2023-04-19T19:06:20.415Z,74.52
2023-04-19T19:08:50.535Z,74.81
2023-04-19T19:13:57.451Z,74.25
2023-04-19T19:16:26.479Z,73.99
2023-04-19T19:18:56.268Z,74.36
2023-04-19T19:21:24.738Z,74.58
2023-04-19T19:23:57.664Z,74.67
2023-04-19T19:26:26.621Z,74.48
2023-04-19T19:28:55.162Z,74.63
2023-04-19T19:31:23.545Z,74.49
2023-04-19T19:34:10.152Z,74.18
2023-04-19T19:36:40.599Z,73.94
2023-04-19T19:39:10.893Z,73.77
2023-04-19T19:44:17.611Z,73.22
2023-04-19T19:46:45.984Z,73.29
2023-04-19T19:49:14.728Z,73.23
2023-04-19T19:51:57.623Z,73.10
2023-04-19T19:54:27.150Z,73.24
2023-04-19T19:59:30.122Z,72.99
2023-04-19T20:01:59.271Z,72.67
2023-04-19T20:04:27.769Z,72.54
2023-04-19T20:07:28.528Z,72.60
2023-04-19T20:09:44.989Z,72.46
2023-04-19T20:12:13.787Z,72.63
2023-04-19T20:14:42.083Z,72.62
2023-04-19T20:17:10.309Z,72.72
2023-04-19T20:19:38.608Z,72.72
2023-04-19T20:22:06.907Z,72.41
2023-04-19T20:24:35.306Z,72.04
2023-04-19T20:27:03.825Z,72.24
2023-04-19T20:29:31.998Z,72.19
2023-04-19T20:32:00.497Z,72.47
2023-04-19T20:34:28.827Z,72.54
2023-04-19T20:36:57.160Z,72.66
2023-04-19T20:39:26.755Z,72.79
2023-04-19T20:41:54.907Z,72.74
2023-04-19T20:44:23.116Z,72.88
2023-04-19T20:46:52.279Z,72.84
2023-04-19T20:49:20.542Z,72.81
2023-04-19T20:51:50.060Z,72.88
2023-04-19T20:54:20.271Z,73.01
2023-04-19T20:56:48.522Z,72.97
2023-04-19T20:59:17.099Z,72.88
2023-04-19T21:01:45.544Z,73.03
2023-04-19T21:04:14.229Z,73.16
2023-04-19T21:06:42.995Z,73.11
2023-04-19T21:09:11.862Z,72.82
2023-04-19T21:11:40.132Z,73.15
2023-04-19T21:14:08.407Z,73.09
2023-04-19T21:16:36.766Z,73.27
2023-04-19T21:19:05.049Z,73.05
2023-04-19T21:21:33.697Z,73.15
2023-04-19T21:24:01.897Z,73.01
2023-04-19T21:26:30.799Z,73.19
2023-04-19T21:28:59.306Z,73.01
2023-04-19T21:31:27.681Z,72.92
2023-04-19T21:33:55.948Z,72.87
2023-04-19T21:36:24.226Z,72.85
2023-04-19T21:38:52.538Z,72.43
2023-04-19T21:41:20.782Z,72.40
2023-04-19T21:43:48.922Z,72.40
2023-04-19T21:46:17.138Z,72.28
2023-04-19T21:48:45.409Z,72.23
2023-04-19T21:51:14.115Z,72.44
2023-04-19T21:53:42.447Z,72.49
2023-04-19T21:56:10.515Z,72.42
2023-04-19T21:58:38.593Z,72.52
2023-04-19T22:01:06.935Z,72.34
2023-04-19T22:03:35.541Z,72.41
2023-04-19T22:06:03.945Z,72.43
2023-04-19T22:08:33.132Z,72.41
2023-04-19T22:11:01.684Z,72.45
2023-04-19T22:13:33.621Z,72.44
2023-04-19T22:16:02.555Z,72.22
2023-04-19T22:18:31.472Z,72.20
2023-04-19T22:20:59.651Z,72.12
2023-04-19T22:23:27.805Z,72.14
2023-04-19T22:25:56.147Z,72.06
2023-04-19T22:28:24.606Z,71.84
2023-04-19T22:30:52.910Z,71.87
2023-04-19T22:33:22.109Z,71.69
2023-04-19T22:35:50.491Z,71.61
2023-04-19T22:38:19.244Z,71.54
2023-04-19T22:40:47.468Z,71.55
2023-04-19T22:43:16.141Z,71.09
2023-04-19T22:45:50.589Z,70.87
2023-04-19T22:48:18.848Z,70.63
2023-04-19T22:50:47.115Z,70.61
2023-04-19T22:53:15.468Z,70.60
2023-04-19T22:55:43.657Z,70.59
2023-04-19T22:58:11.957Z,70.20
2023-04-19T23:00:40.124Z,70.30
2023-04-19T23:03:08.498Z,70.40
2023-04-19T23:05:36.747Z,70.18
2023-04-19T23:08:05.090Z,70.11
2023-04-19T23:10:38.204Z,70.08
2023-04-19T23:13:06.956Z,70.24
2023-04-19T23:15:35.461Z,70.13
2023-04-19T23:18:04.149Z,69.92
2023-04-19T23:20:33.438Z,69.51
2023-04-19T23:23:01.688Z,69.45
2023-04-19T23:25:30.179Z,69.44
2023-04-19T23:27:58.291Z,69.67
2023-04-19T23:30:26.662Z,69.46
2023-04-19T23:32:54.914Z,69.43
2023-04-19T23:35:23.142Z,69.26
2023-04-19T23:37:51.526Z,69.28
2023-04-19T23:40:20.333Z,69.26
2023-04-19T23:42:48.476Z,69.35
2023-04-19T23:45:16.587Z,69.17
2023-04-19T23:47:44.851Z,69.18
2023-04-19T23:50:13.104Z,69.19
2023-04-19T23:52:41.292Z,69.22
2023-04-19T23:55:09.807Z,69.19
2023-04-19T23:57:38.168Z,69.25
